createdAt,value
2022-12-15T00:02:19.238Z,22.50
2022-12-15T00:05:04.721Z,22.97
2022-12-15T00:07:49.906Z,29.43
2022-12-15T00:10:35.272Z,26.37
2022-12-15T00:13:20.578Z,28.47
2022-12-15T00:16:06.584Z,26.20
2022-12-15T00:18:52.125Z,26.13
2022-12-15T00:21:37.346Z,26.47
2022-12-15T00:24:22.802Z,25.80
2022-12-15T00:27:08.184Z,27.67
2022-12-15T00:29:53.294Z,27.53
2022-12-15T00:32:38.686Z,23.03
2022-12-15T00:35:24.324Z,23.10
2022-12-15T00:38:09.675Z,22.37
2022-12-15T00:40:36.426Z,24.53
2022-12-15T00:43:03.509Z,21.50
2022-12-15T00:45:48.806Z,28.67
2022-12-15T00:48:15.564Z,24.43
2022-12-15T00:50:53.872Z,23.30
2022-12-15T00:53:42.843Z,24.57
2022-12-15T00:56:28.763Z,23.10
2022-12-15T00:59:14.081Z,22.63
2022-12-15T01:02:00.192Z,25.77
2022-12-15T01:04:46.666Z,25.83
2022-12-15T01:07:32.473Z,22.23
2022-12-15T01:10:17.755Z,26.10
2022-12-15T01:13:04.000Z,24.93
2022-12-15T01:15:49.166Z,25.33
2022-12-15T01:18:34.616Z,28.00
2022-12-15T01:21:04.939Z,27.17
2022-12-15T01:23:33.010Z,31.03
2022-12-15T01:26:00.151Z,29.93
2022-12-15T01:28:27.185Z,24.87
2022-12-15T01:30:53.945Z,32.57
2022-12-15T01:33:21.842Z,26.40
2022-12-15T01:35:57.458Z,29.87
2022-12-15T01:38:24.398Z,27.27
2022-12-15T01:40:57.501Z,30.60
2022-12-15T01:43:27.882Z,26.43
2022-12-15T01:46:00.413Z,27.60
2022-12-15T01:48:41.476Z,26.07
2022-12-15T01:51:42.681Z,33.20
2022-12-15T01:54:20.949Z,28.33
2022-12-15T01:56:52.659Z,35.43
2022-12-15T01:59:23.874Z,35.13
2022-12-15T02:01:50.939Z,31.03
2022-12-15T02:04:21.531Z,27.77
2022-12-15T02:06:48.364Z,32.07
2022-12-15T02:09:16.497Z,27.40
2022-12-15T02:12:05.926Z,30.17
2022-12-15T02:14:44.761Z,28.67
2022-12-15T02:17:29.464Z,24.55
2022-12-15T02:20:14.075Z,25.97
2022-12-15T02:22:54.792Z,25.77
2022-12-15T02:25:56.170Z,25.73
2022-12-15T02:28:34.840Z,23.70
2022-12-15T02:31:22.318Z,23.75
2022-12-15T02:34:00.135Z,25.57
2022-12-15T02:36:33.464Z,23.13
2022-12-15T02:39:00.204Z,24.07
2022-12-15T02:41:37.844Z,23.40
2022-12-15T02:44:18.364Z,22.60
2022-12-15T02:46:51.121Z,25.33
2022-12-15T02:49:26.698Z,28.27
2022-12-15T02:52:05.879Z,25.27
2022-12-15T02:54:46.495Z,26.30
2022-12-15T02:57:27.316Z,27.70
2022-12-15T02:59:57.932Z,29.83
2022-12-15T03:02:28.075Z,28.73
2022-12-15T03:04:55.916Z,28.60
2022-12-15T03:07:24.966Z,27.50
2022-12-15T03:09:52.384Z,27.17
2022-12-15T03:12:19.002Z,30.60
2022-12-15T03:14:45.673Z,27.00
2022-12-15T03:17:12.400Z,26.23
2022-12-15T03:19:39.050Z,32.67
2022-12-15T03:22:05.790Z,27.50
2022-12-15T03:24:32.539Z,30.20
2022-12-15T03:26:59.562Z,23.47
2022-12-15T03:29:26.280Z,35.37
2022-12-15T03:31:53.084Z,30.17
2022-12-15T03:34:19.911Z,33.30
2022-12-15T03:36:46.923Z,26.63
2022-12-15T03:39:13.670Z,27.90
2022-12-15T03:41:41.553Z,28.97
2022-12-15T03:44:09.226Z,28.47
2022-12-15T03:46:35.956Z,27.13
2022-12-15T03:49:02.682Z,31.73
2022-12-15T03:51:29.445Z,23.57
2022-12-15T03:53:56.173Z,24.27
2022-12-15T03:56:22.784Z,28.77
2022-12-15T03:58:49.463Z,28.53
2022-12-15T04:01:29.577Z,26.67
2022-12-15T04:04:00.860Z,28.93
2022-12-15T04:06:28.950Z,26.33
2022-12-15T04:08:55.633Z,27.90
2022-12-15T04:11:22.327Z,26.57
2022-12-15T04:13:49.051Z,25.17
2022-12-15T04:16:19.790Z,29.07
2022-12-15T04:19:07.445Z,25.40
2022-12-15T04:21:34.057Z,32.73
2022-12-15T04:24:19.223Z,27.67
2022-12-15T04:27:04.700Z,24.50
2022-12-15T04:29:51.406Z,27.80
2022-12-15T04:32:36.673Z,26.73
2022-12-15T04:35:21.820Z,31.00
2022-12-15T04:38:07.237Z,24.50
2022-12-15T04:40:52.726Z,26.53
2022-12-15T04:43:37.900Z,28.17
2022-12-15T04:46:23.270Z,31.23
2022-12-15T04:49:08.867Z,32.33
2022-12-15T04:51:54.124Z,29.13
2022-12-15T04:54:39.713Z,29.87
2022-12-15T04:57:24.900Z,30.00
2022-12-15T05:00:10.150Z,26.67
2022-12-15T05:02:55.476Z,30.30
2022-12-15T05:05:40.732Z,29.70
2022-12-15T05:08:25.936Z,28.10
2022-12-15T05:11:11.071Z,28.37
2022-12-15T05:13:56.191Z,26.50
2022-12-15T05:16:41.575Z,33.27
2022-12-15T05:19:27.121Z,32.73
2022-12-15T05:22:12.267Z,50.47
2022-12-15T05:24:57.956Z,38.43
2022-12-15T05:27:43.319Z,62.67
2022-12-15T05:30:28.798Z,67.40
2022-12-15T05:32:55.561Z,73.50
2022-12-15T05:35:22.282Z,127.57
2022-12-15T05:37:48.930Z,66.27
2022-12-15T05:40:15.762Z,68.37
2022-12-15T05:42:42.420Z,76.63
2022-12-15T05:45:10.300Z,61.60
2022-12-15T05:47:36.978Z,78.97
2022-12-15T05:50:03.759Z,81.47
2022-12-15T05:52:30.595Z,65.53
2022-12-15T05:54:57.272Z,62.70
2022-12-15T05:57:23.977Z,60.27
2022-12-15T05:59:50.628Z,60.57
2022-12-15T06:02:17.333Z,77.40
2022-12-15T06:04:44.356Z,77.43
2022-12-15T06:07:11.143Z,62.13
2022-12-15T06:09:37.835Z,123.50
2022-12-15T06:12:04.595Z,75.03
2022-12-15T06:14:31.268Z,57.30
2022-12-15T06:16:58.768Z,56.03
2022-12-15T06:19:25.561Z,96.87
2022-12-15T06:21:52.182Z,57.90
2022-12-15T06:24:18.919Z,57.47
2022-12-15T06:26:46.307Z,96.47
2022-12-15T06:29:16.405Z,88.20
2022-12-15T06:31:43.158Z,55.53
2022-12-15T06:34:15.847Z,53.23
2022-12-15T06:36:43.041Z,56.00
2022-12-15T06:39:12.765Z,98.07
2022-12-15T06:41:40.249Z,61.83
2022-12-15T06:44:07.055Z,52.00
2022-12-15T06:46:37.657Z,49.40
2022-12-15T06:49:04.686Z,47.43
2022-12-15T06:51:32.348Z,53.43
2022-12-15T06:53:59.510Z,60.93
2022-12-15T06:56:36.052Z,49.13
2022-12-15T06:59:04.654Z,60.60
2022-12-15T07:01:32.183Z,56.37
2022-12-15T07:04:04.945Z,57.23
2022-12-15T07:06:37.312Z,58.37
2022-12-15T07:09:07.379Z,56.73
2022-12-15T07:11:34.092Z,60.73
2022-12-15T07:14:00.782Z,57.03
2022-12-15T07:16:27.540Z,58.97
2022-12-15T07:18:54.239Z,59.70
2022-12-15T07:21:20.961Z,56.50
2022-12-15T07:23:56.782Z,52.17
2022-12-15T07:26:24.469Z,55.90
2022-12-15T07:28:52.822Z,52.70
2022-12-15T07:31:19.562Z,50.40
2022-12-15T07:33:48.212Z,54.10
2022-12-15T07:36:15.061Z,45.90
2022-12-15T07:38:41.777Z,51.90
2022-12-15T07:41:09.984Z,47.60
2022-12-15T07:43:37.972Z,58.73
2022-12-15T07:46:05.804Z,49.47
2022-12-15T07:48:33.258Z,54.23
2022-12-15T07:51:09.594Z,55.93
2022-12-15T07:53:39.814Z,44.95
2022-12-15T07:56:09.363Z,44.30
2022-12-15T07:58:37.482Z,44.83
2022-12-15T08:01:10.081Z,49.87
2022-12-15T08:03:37.984Z,57.33
2022-12-15T08:06:06.767Z,55.70
2022-12-15T08:08:34.564Z,50.37
2022-12-15T08:11:09.303Z,51.37
2022-12-15T08:16:23.613Z,72.47
2022-12-15T08:18:50.430Z,54.13
2022-12-15T08:21:17.940Z,57.97
2022-12-15T08:23:44.919Z,54.03
2022-12-15T08:26:17.601Z,52.10
2022-12-15T08:28:44.940Z,50.50
2022-12-15T08:31:16.272Z,50.07
2022-12-15T08:33:44.725Z,50.37
2022-12-15T08:36:13.751Z,55.87
2022-12-15T08:38:42.389Z,57.00
2022-12-15T08:41:09.510Z,62.67
2022-12-15T08:43:41.198Z,53.67
2022-12-15T08:46:13.091Z,62.73
2022-12-15T08:48:40.292Z,52.43
2022-12-15T08:51:07.968Z,56.13
2022-12-15T08:53:34.778Z,57.30
2022-12-15T08:56:10.318Z,46.37
2022-12-15T08:58:37.050Z,54.00
2022-12-15T09:01:06.508Z,62.03
2022-12-15T09:03:35.318Z,56.78
2022-12-15T09:06:13.564Z,52.50
2022-12-15T09:08:40.485Z,53.93
2022-12-15T09:11:07.487Z,51.40
2022-12-15T09:13:35.158Z,52.40
2022-12-15T09:16:10.447Z,61.30
2022-12-15T09:18:38.183Z,55.67
2022-12-15T09:21:07.426Z,50.43
2022-12-15T09:23:36.009Z,41.15
2022-12-15T09:26:11.724Z,44.22
2022-12-15T09:28:39.236Z,38.43
2022-12-15T09:31:08.283Z,47.57
2022-12-15T09:33:35.913Z,43.25
2022-12-15T09:36:03.712Z,45.77
2022-12-15T09:38:31.140Z,46.37
2022-12-15T09:40:58.460Z,48.53
2022-12-15T09:43:36.424Z,46.13
2022-12-15T09:46:16.999Z,42.00
2022-12-15T09:48:45.464Z,50.40
2022-12-15T09:51:16.625Z,48.80
2022-12-15T09:53:59.198Z,47.23
2022-12-15T09:56:55.136Z,52.23
2022-12-15T09:59:58.957Z,45.50
2022-12-15T10:02:38.912Z,44.20
2022-12-15T10:06:07.388Z,50.73
2022-12-15T10:08:23.633Z,47.27
2022-12-15T10:11:02.186Z,47.13
2022-12-15T10:13:50.412Z,45.70
2022-12-15T10:16:42.064Z,51.50
2022-12-15T10:19:14.031Z,45.23
2022-12-15T10:21:41.058Z,49.53
2022-12-15T10:24:44.305Z,47.13
2022-12-15T10:27:36.554Z,43.65
2022-12-15T10:30:09.931Z,51.53
2022-12-15T10:33:07.685Z,49.42
2022-12-15T10:35:36.327Z,51.92
2022-12-15T10:38:06.279Z,54.53
2022-12-15T10:40:42.141Z,48.53
2022-12-15T10:43:35.841Z,58.92
2022-12-15T10:46:22.234Z,48.13
2022-12-15T10:48:57.578Z,55.03
2022-12-15T10:51:42.585Z,57.22
2022-12-15T10:54:14.087Z,56.60
2022-12-15T10:57:03.714Z,54.95
2022-12-15T10:59:38.699Z,58.88
2022-12-15T11:02:24.667Z,54.70
2022-12-15T11:05:03.282Z,56.92
2022-12-15T11:07:34.651Z,56.25
2022-12-15T11:10:08.252Z,58.60
2022-12-15T11:15:45.568Z,60.72
2022-12-15T11:18:29.051Z,64.50
2022-12-15T11:21:28.046Z,65.45
2022-12-15T11:24:11.947Z,54.22
2022-12-15T11:27:02.843Z,50.00
2022-12-15T11:29:34.513Z,51.42
2022-12-15T11:32:06.780Z,47.13
2022-12-15T11:34:38.004Z,54.20
2022-12-15T11:37:15.424Z,55.92
2022-12-15T11:39:45.435Z,43.85
2022-12-15T11:42:28.635Z,46.67
2022-12-15T11:45:17.215Z,49.40
2022-12-15T11:47:46.522Z,52.13
2022-12-15T11:50:25.371Z,46.53
2022-12-15T11:53:05.219Z,53.65
2022-12-15T11:55:51.441Z,60.33
2022-12-15T11:58:57.020Z,55.65
2022-12-15T12:02:05.329Z,65.35
2022-12-15T12:04:42.727Z,59.75
2022-12-15T12:07:09.691Z,64.85
2022-12-15T12:09:59.351Z,66.00
2022-12-15T12:12:41.098Z,61.08
2022-12-15T12:15:13.680Z,56.03
2022-12-15T12:17:53.294Z,59.03
2022-12-15T12:22:57.535Z,58.75
2022-12-15T12:25:26.639Z,58.80
2022-12-15T12:28:18.329Z,64.25
2022-12-15T12:30:48.711Z,58.40
2022-12-15T12:33:39.842Z,55.97
2022-12-15T12:36:12.127Z,58.83
2022-12-15T12:38:50.752Z,59.05
2022-12-15T12:41:45.063Z,60.17
2022-12-15T12:44:19.250Z,62.05
2022-12-15T12:46:51.737Z,59.72
2022-12-15T12:49:28.603Z,56.78
2022-12-15T12:51:58.827Z,62.03
2022-12-15T12:54:34.318Z,56.17
2022-12-15T12:57:02.757Z,59.40
2022-12-15T12:59:29.383Z,57.92
2022-12-15T13:01:57.822Z,54.55
2022-12-15T13:04:30.749Z,56.95
2022-12-15T13:07:07.784Z,58.97
2022-12-15T13:09:43.585Z,62.67
2022-12-15T13:12:53.517Z,60.13
2022-12-15T13:15:49.156Z,57.83
2022-12-15T13:18:24.396Z,57.58
2022-12-15T13:20:55.463Z,56.67
2022-12-15T13:23:22.062Z,59.22
2022-12-15T13:25:57.536Z,57.63
2022-12-15T13:28:27.174Z,54.25
2022-12-15T13:31:18.695Z,55.80
2022-12-15T13:33:52.407Z,59.35
2022-12-15T13:36:39.907Z,56.35
2022-12-15T13:39:12.478Z,63.90
2022-12-15T13:44:54.703Z,61.45
2022-12-15T13:47:28.859Z,74.28
2022-12-15T13:50:06.919Z,69.30
2022-12-15T13:53:16.510Z,83.47
2022-12-15T13:55:33.071Z,72.05
2022-12-15T13:58:14.659Z,77.97
2022-12-15T14:00:52.415Z,72.03
2022-12-15T14:03:19.757Z,76.30
2022-12-15T14:05:58.861Z,73.53
2022-12-15T14:08:28.721Z,85.80
2022-12-15T14:13:31.031Z,75.03
2022-12-15T14:16:00.036Z,76.27
2022-12-15T14:18:33.519Z,80.63
2022-12-15T14:21:02.322Z,79.07
2022-12-15T14:23:39.513Z,81.28
2022-12-15T14:26:09.028Z,83.57
2022-12-15T14:28:38.335Z,77.15
2022-12-15T14:31:20.789Z,83.85
2022-12-15T14:34:15.330Z,81.57
2022-12-15T14:36:43.370Z,77.37
2022-12-15T14:39:34.816Z,81.40
2022-12-15T14:42:02.187Z,87.10
2022-12-15T14:44:48.073Z,77.10
2022-12-15T14:47:22.372Z,82.23
2022-12-15T14:49:49.761Z,86.20
2022-12-15T14:52:32.445Z,83.40
2022-12-15T14:55:16.873Z,83.57
2022-12-15T14:57:45.678Z,76.67
2022-12-15T15:00:30.901Z,93.90
2022-12-15T15:03:09.089Z,56.85
2022-12-15T15:03:19.048Z,87.33
2022-12-15T15:05:50.445Z,89.68
2022-12-15T15:08:27.338Z,83.43
2022-12-15T15:10:57.789Z,79.70
2022-12-15T15:13:35.963Z,84.93
2022-12-15T15:16:08.588Z,79.87
2022-12-15T15:18:35.384Z,78.68
2022-12-15T15:21:04.957Z,82.70
2022-12-15T15:26:15.376Z,91.40
2022-12-15T15:28:44.273Z,88.40
2022-12-15T15:31:31.671Z,82.72
2022-12-15T15:34:00.920Z,86.30
2022-12-15T15:36:32.946Z,93.13
2022-12-15T15:39:01.125Z,89.50
2022-12-15T15:41:30.226Z,88.83
2022-12-15T15:44:01.667Z,88.57
2022-12-15T15:46:30.696Z,69.80
2022-12-15T15:49:03.434Z,50.17
2022-12-15T15:51:32.219Z,35.23
2022-12-15T15:54:08.544Z,29.75
2022-12-15T15:56:35.326Z,20.33
2022-12-15T15:59:13.238Z,13.27
2022-12-15T16:01:40.232Z,18.30
2022-12-15T16:04:07.018Z,13.23
2022-12-15T16:06:34.118Z,19.47
2022-12-15T16:09:00.890Z,11.00
2022-12-15T16:11:30.972Z,12.63
2022-12-15T16:14:00.219Z,21.97
2022-12-15T16:16:31.174Z,16.23
2022-12-15T16:18:58.139Z,13.57
2022-12-15T16:21:28.257Z,24.13
2022-12-15T16:23:56.940Z,16.00
2022-12-15T16:26:29.248Z,18.20
2022-12-15T16:28:56.263Z,15.13
2022-12-15T16:31:40.682Z,16.67
2022-12-15T16:34:08.282Z,17.93
2022-12-15T16:36:35.200Z,18.80
2022-12-15T16:39:02.182Z,17.15
2022-12-15T16:41:28.908Z,14.17
2022-12-15T16:43:55.544Z,17.77
2022-12-15T16:46:22.457Z,14.35
2022-12-15T16:48:49.237Z,12.25
2022-12-15T16:51:46.202Z,11.93
2022-12-15T16:54:26.130Z,13.07
2022-12-15T16:56:57.467Z,9.60
2022-12-15T16:59:33.556Z,10.48
2022-12-15T17:02:01.064Z,12.30
2022-12-15T17:04:28.084Z,12.23
2022-12-15T17:06:55.044Z,10.65
2022-12-15T17:09:25.215Z,10.93
2022-12-15T17:11:52.159Z,8.60
2022-12-15T17:14:18.886Z,10.25
2022-12-15T17:16:45.734Z,11.32
2022-12-15T17:19:17.586Z,11.02
2022-12-15T17:21:50.726Z,10.20
2022-12-15T17:24:20.133Z,14.15
2022-12-15T17:26:47.318Z,9.88
2022-12-15T17:29:25.362Z,11.20
2022-12-15T17:31:52.336Z,12.65
2022-12-15T17:34:34.558Z,10.65
2022-12-15T17:37:04.858Z,11.97
2022-12-15T17:39:34.013Z,13.50
2022-12-15T17:42:02.141Z,15.18
2022-12-15T17:44:34.224Z,12.20
2022-12-15T17:47:02.530Z,11.03
2022-12-15T17:49:35.058Z,10.52
2022-12-15T17:52:23.660Z,8.82
2022-12-15T17:54:51.415Z,6.03
2022-12-15T17:57:18.404Z,7.10
2022-12-15T17:59:45.150Z,5.33
2022-12-15T18:02:14.078Z,7.57
2022-12-15T18:04:41.802Z,7.45
2022-12-15T18:07:19.211Z,5.50
2022-12-15T18:09:46.651Z,5.85
2022-12-15T18:12:22.527Z,6.32
2022-12-15T18:14:49.742Z,6.57
2022-12-15T18:17:16.572Z,5.10
2022-12-15T18:19:43.535Z,4.80
2022-12-15T18:22:17.009Z,6.07
2022-12-15T18:24:43.769Z,3.40
2022-12-15T18:27:25.620Z,6.03
2022-12-15T18:29:53.014Z,6.18
2022-12-15T18:32:24.369Z,3.63
2022-12-15T18:34:51.638Z,2.40
2022-12-15T18:37:23.197Z,3.10
2022-12-15T18:39:50.645Z,2.28
2022-12-15T18:42:19.801Z,3.08
2022-12-15T18:44:49.450Z,2.90
2022-12-15T18:47:23.428Z,3.78
2022-12-15T18:49:50.393Z,3.03
2022-12-15T18:52:19.982Z,2.30
2022-12-15T18:57:35.872Z,1.90
2022-12-15T19:00:25.063Z,1.67
2022-12-15T19:02:54.226Z,2.53
2022-12-15T19:05:29.243Z,1.70
2022-12-15T19:08:18.510Z,3.20
2022-12-15T19:11:07.629Z,2.35
2022-12-15T19:13:36.822Z,1.58
2022-12-15T19:16:06.255Z,2.00
2022-12-15T19:18:51.661Z,2.30
2022-12-15T19:21:40.417Z,2.20
2022-12-15T19:24:53.445Z,2.40
2022-12-15T19:27:23.302Z,1.93
2022-12-15T19:29:50.693Z,2.90
2022-12-15T19:32:17.548Z,1.48
2022-12-15T19:34:44.702Z,2.47
2022-12-15T19:37:25.069Z,1.95
2022-12-15T19:39:52.159Z,2.42
2022-12-15T19:42:23.931Z,2.90
2022-12-15T19:44:50.566Z,2.95
2022-12-15T19:47:17.297Z,3.10
2022-12-15T19:49:44.119Z,3.45
2022-12-15T19:52:18.042Z,5.90
2022-12-15T19:54:48.090Z,2.28
2022-12-15T19:57:17.631Z,2.53
2022-12-15T19:59:44.952Z,3.63
2022-12-15T20:02:20.345Z,8.32
2022-12-15T20:04:48.390Z,4.95
2022-12-15T20:07:25.418Z,4.07
2022-12-15T20:09:52.044Z,2.72
2022-12-15T20:12:19.368Z,3.83
2022-12-15T20:14:48.348Z,4.47
2022-12-15T20:17:15.192Z,2.45
2022-12-15T20:19:42.715Z,4.68
2022-12-15T20:22:15.376Z,4.15
2022-12-15T20:24:43.342Z,4.80
2022-12-15T20:27:19.099Z,3.58
2022-12-15T20:29:45.837Z,2.97
2022-12-15T20:32:19.453Z,3.10
2022-12-15T20:34:46.663Z,4.78
2022-12-15T20:37:28.722Z,3.35
2022-12-15T20:39:57.679Z,3.20
2022-12-15T20:42:25.143Z,2.92
2022-12-15T20:44:52.017Z,3.58
2022-12-15T20:47:25.961Z,2.33
2022-12-15T20:49:54.810Z,2.50
2022-12-15T20:52:26.696Z,2.67
2022-12-15T20:54:54.593Z,2.42
2022-12-15T20:57:21.747Z,3.15
2022-12-15T20:59:48.521Z,3.47
2022-12-15T21:02:18.714Z,3.10
2022-12-15T21:04:45.598Z,3.10
2022-12-15T21:07:12.481Z,2.65
2022-12-15T21:09:39.247Z,2.50
2022-12-15T21:12:27.496Z,2.35
2022-12-15T21:14:55.082Z,5.28
2022-12-15T21:17:24.301Z,2.78
2022-12-15T21:19:51.236Z,1.92
2022-12-15T21:22:27.334Z,2.80
2022-12-15T21:24:59.190Z,2.78
2022-12-15T21:27:25.864Z,2.80
2022-12-15T21:29:53.234Z,1.67
2022-12-15T21:32:20.633Z,3.47
2022-12-15T21:34:47.374Z,2.55
2022-12-15T21:37:29.512Z,3.47
2022-12-15T21:39:57.801Z,2.45
2022-12-15T21:42:25.472Z,2.38
2022-12-15T21:44:52.175Z,3.20
2022-12-15T21:47:49.987Z,4.22
2022-12-15T21:50:19.439Z,3.13
2022-12-15T21:52:46.638Z,3.35
2022-12-15T21:55:22.085Z,3.50
2022-12-15T21:57:48.752Z,3.72
2022-12-15T22:00:17.745Z,1.98
2022-12-15T22:02:45.908Z,3.13
2022-12-15T22:05:20.128Z,2.50
2022-12-15T22:07:47.275Z,4.03
2022-12-15T22:10:14.621Z,2.10
2022-12-15T22:12:44.019Z,2.47
2022-12-15T22:15:19.633Z,2.80
2022-12-15T22:17:46.851Z,5.50
2022-12-15T22:20:18.720Z,3.97
2022-12-15T22:22:45.991Z,3.40
2022-12-15T22:25:24.459Z,2.60
2022-12-15T22:27:52.534Z,3.30
2022-12-15T22:30:26.655Z,4.18
2022-12-15T22:32:53.844Z,2.30
2022-12-15T22:35:25.413Z,2.20
2022-12-15T22:37:56.366Z,3.35
2022-12-15T22:40:24.226Z,3.85
2022-12-15T22:42:55.123Z,2.58
2022-12-15T22:45:24.137Z,2.47
2022-12-15T22:47:52.345Z,2.50
2022-12-15T22:50:22.076Z,2.15
2022-12-15T22:52:49.277Z,2.70
2022-12-15T22:55:17.983Z,4.28
2022-12-15T22:57:53.850Z,4.03
2022-12-15T23:00:20.946Z,2.60
2022-12-15T23:02:47.801Z,3.38
2022-12-15T23:05:18.709Z,3.08
2022-12-15T23:07:46.301Z,2.30
2022-12-15T23:10:33.492Z,2.72
2022-12-15T23:13:00.129Z,2.60
2022-12-15T23:15:46.655Z,3.47
2022-12-15T23:18:13.902Z,2.38
2022-12-15T23:20:41.377Z,2.28
2022-12-15T23:23:09.843Z,4.05
2022-12-15T23:25:36.669Z,4.75
2022-12-15T23:28:03.812Z,4.00
2022-12-15T23:30:30.693Z,4.15
2022-12-15T23:32:57.373Z,5.00
2022-12-15T23:35:24.247Z,3.38
2022-12-15T23:37:51.097Z,2.33
2022-12-15T23:40:22.291Z,2.33
2022-12-15T23:42:50.526Z,4.90
2022-12-15T23:45:18.223Z,4.93
2022-12-15T23:47:47.521Z,3.77
2022-12-15T23:50:14.405Z,5.63
2022-12-15T23:52:41.373Z,7.90
2022-12-15T23:55:10.105Z,2.93
2022-12-15T23:57:37.788Z,2.85
